Time;durP1;ratioP1;P1;durP2;ratioP2;P2;SDS_P1;SDS_P2;PMS_P1;PMS_P2;Temp;Humidity;BMP_temperature;BMP_pressure;BME280_temperature;BME280_humidity;BME280_pressure;Samples;Min_cycle;Max_cycle;Signal;HPM_P1;HPM_P2
2021/04/17 00:00:13;;;;;;;1.73;0.70;;;19.70;28.80;;;;;;5104279;28;20036;-67
2021/04/17 00:02:38;;;;;;;2.35;0.90;;;19.70;28.70;;;;;;5095658;28;20533;-67
2021/04/17 00:05:06;;;;;;;1.60;0.70;;;19.70;28.80;;;;;;5094155;28;20024;-67
2021/04/17 00:07:32;;;;;;;2.65;0.80;;;19.70;28.80;;;;;;5093820;28;20407;-65
2021/04/17 00:09:58;;;;;;;1.63;0.63;;;19.70;28.80;;;;;;5093030;28;20021;-67
2021/04/17 00:12:23;;;;;;;1.17;0.57;;;19.70;28.80;;;;;;5094212;28;20028;-67
2021/04/17 00:14:50;;;;;;;1.27;0.57;;;19.70;28.80;;;;;;5093598;28;20027;-67
2021/04/17 00:17:18;;;;;;;1.25;0.60;;;19.70;28.70;;;;;;5093310;28;20530;-66
2021/04/17 00:19:46;;;;;;;2.30;0.75;;;19.70;28.80;;;;;;5093460;28;20107;-67
2021/04/17 00:22:12;;;;;;;1.83;0.70;;;19.70;28.90;;;;;;5091895;28;20051;-67
2021/04/17 00:24:37;;;;;;;1.85;0.73;;;19.70;28.80;;;;;;5093682;28;20111;-67
2021/04/17 00:27:03;;;;;;;3.25;0.60;;;19.70;28.80;;;;;;5093321;28;20028;-66
2021/04/17 00:29:30;;;;;;;3.00;0.90;;;19.70;28.90;;;;;;5093196;28;20020;-66
2021/04/17 00:31:56;;;;;;;1.90;0.75;;;19.70;28.80;;;;;;5093109;28;20014;-66
2021/04/17 00:34:21;;;;;;;1.98;0.80;;;19.70;28.90;;;;;;5093151;28;20104;-67
2021/04/17 00:36:47;;;;;;;1.92;0.70;;;19.70;28.80;;;;;;5093226;28;20557;-67
2021/04/17 00:39:12;;;;;;;2.45;0.80;;;19.70;28.90;;;;;;5093141;28;20071;-67
2021/04/17 00:41:38;;;;;;;2.10;0.80;;;19.70;28.90;;;;;;5093327;28;20060;-67
2021/04/17 00:44:04;;;;;;;1.88;0.70;;;19.70;28.90;;;;;;5093157;28;20020;-67
2021/04/17 00:46:31;;;;;;;1.60;0.68;;;19.70;28.90;;;;;;5093077;28;20028;-67
2021/04/17 00:48:57;;;;;;;0.93;0.52;;;19.70;28.90;;;;;;5093118;28;20032;-67
2021/04/17 00:51:23;;;;;;;1.08;0.50;;;19.70;28.90;;;;;;5093095;28;20522;-67
2021/04/17 00:53:49;;;;;;;0.82;0.50;;;19.70;28.90;;;;;;5093256;28;20055;-67
2021/04/17 00:56:18;;;;;;;1.52;0.60;;;19.70;28.90;;;;;;5094397;28;20054;-67
2021/04/17 00:58:44;;;;;;;2.75;0.70;;;19.60;28.90;;;;;;5097174;28;20375;-67
2021/04/17 01:01:09;;;;;;;1.48;0.52;;;19.60;28.90;;;;;;5096881;28;20032;-67
2021/04/17 01:03:59;;;;;;;2.17;0.85;;;19.60;28.90;;;;;;5097070;28;20020;-67
2021/04/17 01:06:38;;;;;;;1.60;0.68;;;19.60;28.90;;;;;;5097050;28;20411;-67
2021/04/17 01:09:15;;;;;;;2.88;0.70;;;19.70;29.00;;;;;;5096985;28;20028;-66
2021/04/17 01:11:46;;;;;;;2.53;0.77;;;19.60;28.90;;;;;;5096961;28;20462;-66
2021/04/17 01:14:14;;;;;;;0.73;0.50;;;19.60;28.90;;;;;;5096702;28;20035;-66
2021/04/17 01:16:41;;;;;;;2.55;0.73;;;19.60;29.00;;;;;;5096886;28;20023;-66
2021/04/17 01:19:10;;;;;;;1.23;0.55;;;19.60;29.00;;;;;;5102534;28;20039;-67
2021/04/17 01:21:39;;;;;;;1.17;0.52;;;19.60;29.00;;;;;;5098017;28;20136;-67
2021/04/17 01:24:15;;;;;;;1.90;0.65;;;19.60;29.00;;;;;;5097178;28;20024;-66
2021/04/17 01:26:42;;;;;;;0.90;0.52;;;19.60;29.00;;;;;;5096604;28;20047;-66
2021/04/17 01:29:08;;;;;;;3.35;1.10;;;19.60;29.00;;;;;;5096419;28;20040;-66
2021/04/17 01:31:36;;;;;;;3.83;1.00;;;19.60;29.00;;;;;;5096659;28;20017;-67
2021/04/17 01:34:05;;;;;;;2.22;0.73;;;19.60;29.00;;;;;;5096624;28;20444;-67
2021/04/17 01:36:32;;;;;;;1.70;0.80;;;19.60;29.00;;;;;;5094852;28;20020;-66
2021/04/17 01:39:11;;;;;;;2.00;0.80;;;19.60;29.00;;;;;;5094854;28;20475;-66
2021/04/17 01:41:44;;;;;;;2.83;0.90;;;19.60;29.00;;;;;;5095742;28;20081;-66
2021/04/17 01:44:15;;;;;;;2.00;0.83;;;19.60;29.00;;;;;;5096269;28;20032;-67
2021/04/17 01:47:03;;;;;;;1.75;0.80;;;19.60;29.00;;;;;;5095673;28;20456;-66
2021/04/17 01:49:32;;;;;;;1.33;0.57;;;19.60;29.00;;;;;;5096076;28;20048;-66
2021/04/17 01:51:59;;;;;;;1.13;0.65;;;19.60;29.00;;;;;;5094484;28;20024;-67
2021/04/17 01:54:27;;;;;;;2.58;0.70;;;19.60;29.00;;;;;;5095597;28;20480;-66
2021/04/17 01:56:57;;;;;;;2.50;0.80;;;19.60;29.10;;;;;;5096069;28;20027;-66
2021/04/17 01:59:26;;;;;;;1.58;0.63;;;19.60;29.10;;;;;;5095889;28;20028;-66
2021/04/17 02:01:52;;;;;;;2.45;0.80;;;19.60;29.10;;;;;;5095498;28;20043;-66
2021/04/17 02:04:18;;;;;;;1.67;0.65;;;19.60;29.10;;;;;;5095246;28;20020;-66
2021/04/17 02:06:44;;;;;;;1.75;0.80;;;19.60;29.10;;;;;;5095286;28;20356;-66
2021/04/17 02:09:09;;;;;;;3.22;0.90;;;19.60;29.10;;;;;;5095363;28;20075;-66
2021/04/17 02:11:35;;;;;;;1.35;0.60;;;19.50;29.10;;;;;;5095166;28;20495;-66
2021/04/17 02:14:02;;;;;;;1.33;0.50;;;19.50;29.10;;;;;;5095187;28;20024;-66
2021/04/17 02:16:34;;;;;;;1.23;0.60;;;19.60;29.10;;;;;;5095167;28;20104;-66
2021/04/17 02:19:09;;;;;;;1.20;0.63;;;19.50;29.10;;;;;;5095184;28;20028;-67
2021/04/17 02:21:40;;;;;;;2.55;0.68;;;19.60;29.10;;;;;;5095050;28;20040;-66
2021/04/17 02:24:07;;;;;;;2.53;0.90;;;19.50;29.10;;;;;;5095087;28;20016;-67
2021/04/17 02:26:34;;;;;;;2.13;0.68;;;19.60;29.10;;;;;;5095338;28;20081;-66
2021/04/17 02:29:00;;;;;;;1.10;0.50;;;19.50;29.10;;;;;;5094517;28;20090;-66
2021/04/17 02:31:29;;;;;;;1.40;0.60;;;19.50;29.10;;;;;;5095169;28;20107;-66
2021/04/17 02:33:56;;;;;;;2.28;0.90;;;19.50;29.20;;;;;;5095292;28;20032;-66
2021/04/17 02:36:22;;;;;;;1.80;0.75;;;19.50;29.20;;;;;;5094975;28;20551;-66
2021/04/17 02:38:48;;;;;;;2.03;0.70;;;19.60;29.10;;;;;;5095098;28;20028;-66
2021/04/17 02:41:14;;;;;;;3.33;0.88;;;19.60;29.20;;;;;;5094835;28;20067;-66
2021/04/17 02:43:44;;;;;;;2.80;0.90;;;19.50;29.10;;;;;;5095200;28;20024;-67
2021/04/17 02:46:10;;;;;;;2.95;0.90;;;19.50;29.20;;;;;;5094694;28;20474;-67
2021/04/17 02:48:36;;;;;;;1.10;0.50;;;19.50;29.20;;;;;;5094566;28;20059;-66
2021/04/17 02:51:01;;;;;;;3.20;0.90;;;19.50;29.20;;;;;;5094343;28;20039;-67
2021/04/17 02:53:27;;;;;;;2.75;0.82;;;19.50;29.20;;;;;;5094550;28;20024;-67
2021/04/17 02:55:54;;;;;;;0.73;0.52;;;19.50;29.20;;;;;;5094622;28;20032;-67
2021/04/17 02:58:20;;;;;;;1.65;0.80;;;19.50;29.20;;;;;;5094403;28;20024;-67
2021/04/17 03:00:45;;;;;;;1.75;0.70;;;19.50;29.20;;;;;;5094575;28;20028;-67
2021/04/17 03:03:11;;;;;;;1.58;0.65;;;19.50;29.20;;;;;;5094369;28;20031;-67
2021/04/17 03:05:37;;;;;;;2.72;0.90;;;19.50;29.20;;;;;;5094430;28;20035;-67
2021/04/17 03:08:02;;;;;;;2.45;0.75;;;19.50;29.20;;;;;;5094301;28;20044;-67
2021/04/17 03:10:28;;;;;;;2.05;0.70;;;19.50;29.20;;;;;;5093858;28;20099;-67
2021/04/17 03:12:54;;;;;;;1.85;0.68;;;19.50;29.20;;;;;;5094356;28;20059;-67
2021/04/17 03:15:19;;;;;;;2.13;0.82;;;19.50;29.20;;;;;;5094144;28;20024;-67
2021/04/17 03:17:45;;;;;;;1.90;0.80;;;19.50;29.20;;;;;;5093733;28;20039;-67
2021/04/17 03:20:11;;;;;;;2.40;0.70;;;19.50;29.20;;;;;;5093189;28;20034;-67
2021/04/17 03:22:37;;;;;;;1.85;0.82;;;19.50;29.30;;;;;;5093885;28;20059;-67
2021/04/17 03:25:06;;;;;;;2.45;0.80;;;19.50;29.20;;;;;;5093933;28;20020;-67
2021/04/17 03:27:31;;;;;;;1.40;0.70;;;19.50;29.30;;;;;;5092767;28;20361;-68
2021/04/17 03:29:57;;;;;;;2.30;0.70;;;19.50;29.30;;;;;;5094304;28;20081;-67
2021/04/17 03:32:22;;;;;;;1.25;0.70;;;19.50;29.30;;;;;;5093926;28;20028;-67
2021/04/17 03:34:48;;;;;;;1.70;0.80;;;19.50;29.20;;;;;;5093958;28;20101;-67
2021/04/17 03:37:13;;;;;;;2.25;0.70;;;19.50;29.20;;;;;;5093938;28;20024;-67
2021/04/17 03:39:39;;;;;;;1.83;0.82;;;19.50;29.20;;;;;;5094625;28;20048;-67
2021/04/17 03:42:05;;;;;;;4.00;0.80;;;19.50;29.20;;;;;;5098540;28;20043;-67
2021/04/17 03:44:30;;;;;;;2.05;0.50;;;19.50;29.30;;;;;;5102104;28;20543;-67
2021/04/17 03:46:56;;;;;;;2.08;0.70;;;19.40;29.20;;;;;;5102364;28;20031;-67
2021/04/17 03:49:22;;;;;;;1.83;0.70;;;19.50;29.30;;;;;;5098427;28;20028;-67
2021/04/17 03:51:48;;;;;;;2.03;0.90;;;19.40;29.30;;;;;;5094231;28;20555;-67
2021/04/17 03:54:14;;;;;;;1.65;0.70;;;19.40;29.30;;;;;;5092859;28;20141;-67
2021/04/17 03:56:39;;;;;;;1.90;0.80;;;19.40;29.30;;;;;;5093924;28;20024;-67
2021/04/17 03:59:05;;;;;;;1.88;0.60;;;19.40;29.30;;;;;;5093542;28;20031;-67
2021/04/17 04:01:30;;;;;;;2.63;0.80;;;19.40;29.30;;;;;;5093428;28;20032;-67
2021/04/17 04:03:57;;;;;;;3.30;1.05;;;19.40;29.30;;;;;;5093664;28;20152;-67
2021/04/17 04:06:26;;;;;;;1.73;0.80;;;19.40;29.30;;;;;;5093159;28;20024;-66
2021/04/17 04:08:51;;;;;;;1.73;0.80;;;19.40;29.30;;;;;;5093387;28;20024;-67
2021/04/17 04:11:17;;;;;;;3.25;0.63;;;19.40;29.30;;;;;;5093418;28;20033;-65
2021/04/17 04:13:43;;;;;;;2.35;0.90;;;19.40;29.30;;;;;;5093479;28;20081;-66
2021/04/17 04:16:08;;;;;;;0.80;0.52;;;19.40;29.30;;;;;;5093463;28;20096;-66
2021/04/17 04:18:34;;;;;;;2.13;0.63;;;19.40;29.30;;;;;;5093628;28;20133;-66
2021/04/17 04:20:59;;;;;;;2.28;0.90;;;19.50;29.20;;;;;;5092902;28;20199;-65
2021/04/17 04:23:25;;;;;;;1.08;0.65;;;19.50;29.20;;;;;;5093247;28;20033;-67
2021/04/17 04:25:51;;;;;;;1.80;0.80;;;19.50;29.20;;;;;;5093118;28;20463;-66
2021/04/17 04:28:16;;;;;;;1.55;0.60;;;19.50;29.20;;;;;;5093539;28;20032;-66
2021/04/17 04:30:42;;;;;;;1.40;0.68;;;19.50;29.10;;;;;;5093418;28;20487;-66
2021/04/17 04:33:08;;;;;;;2.03;0.70;;;19.50;29.10;;;;;;5097447;28;20047;-66
2021/04/17 04:35:33;;;;;;;2.28;0.75;;;19.60;29.00;;;;;;5097702;28;20487;-66
2021/04/17 04:37:59;;;;;;;2.65;0.77;;;19.60;29.10;;;;;;5097174;28;20027;-67
2021/04/17 04:40:24;;;;;;;1.40;0.80;;;19.70;29.10;;;;;;5097034;28;20471;-67
2021/04/17 04:42:50;;;;;;;2.58;0.90;;;19.70;29.00;;;;;;5097339;28;20024;-66
2021/04/17 04:45:16;;;;;;;2.10;0.80;;;19.70;29.10;;;;;;5096306;28;20020;-67
2021/04/17 04:47:41;;;;;;;2.28;0.60;;;19.70;29.10;;;;;;5098438;28;20028;-66
2021/04/17 04:50:09;;;;;;;1.70;0.73;;;19.70;29.00;;;;;;5097599;28;20024;-66
2021/04/17 04:52:34;;;;;;;1.88;0.70;;;19.70;29.00;;;;;;5097002;28;20082;-66
2021/04/17 04:55:00;;;;;;;1.92;0.90;;;19.70;29.00;;;;;;5096850;28;20468;-67
2021/04/17 04:57:26;;;;;;;4.53;0.80;;;19.80;29.10;;;;;;5096749;28;20031;-66
2021/04/17 04:59:52;;;;;;;2.22;0.80;;;19.80;29.00;;;;;;5097090;28;20030;-66
2021/04/17 05:02:17;;;;;;;4.03;1.13;;;19.80;29.00;;;;;;5096639;28;20142;-66
2021/04/17 05:04:43;;;;;;;1.73;0.65;;;19.80;29.00;;;;;;5096886;28;20383;-67
2021/04/17 05:07:09;;;;;;;2.42;0.75;;;19.80;29.00;;;;;;5096940;28;20024;-66
2021/04/17 05:09:34;;;;;;;2.97;0.80;;;19.80;29.10;;;;;;5097063;28;20391;-66
2021/04/17 05:12:00;;;;;;;1.88;0.70;;;19.80;29.00;;;;;;5096707;28;20032;-66
2021/04/17 05:14:25;;;;;;;2.45;0.80;;;19.80;29.10;;;;;;5096775;28;20024;-67
2021/04/17 05:16:51;;;;;;;1.42;0.75;;;19.80;29.10;;;;;;5096486;28;20077;-67
2021/04/17 05:19:17;;;;;;;1.70;0.80;;;19.80;29.00;;;;;;5096768;28;20036;-67
2021/04/17 05:21:42;;;;;;;1.52;0.68;;;19.90;29.00;;;;;;5096189;28;20160;-67
2021/04/17 05:24:08;;;;;;;1.20;0.68;;;19.80;29.00;;;;;;5096336;28;20539;-67
2021/04/17 05:26:34;;;;;;;2.67;0.88;;;19.90;29.10;;;;;;5096353;28;20119;-67
2021/04/17 05:29:00;;;;;;;2.30;0.73;;;19.90;29.00;;;;;;5096216;28;20024;-67
2021/04/17 05:31:26;;;;;;;3.05;0.80;;;19.90;29.00;;;;;;5096226;28;20024;-67
2021/04/17 05:33:54;;;;;;;1.85;0.82;;;19.90;29.00;;;;;;5096189;28;20020;-67
2021/04/17 05:36:19;;;;;;;2.85;1.02;;;19.90;29.00;;;;;;5096062;28;20012;-67
2021/04/17 05:38:45;;;;;;;1.85;0.70;;;19.90;29.00;;;;;;5096270;28;20024;-67
2021/04/17 05:41:10;;;;;;;2.83;0.75;;;19.90;29.00;;;;;;5095678;28;20424;-67
2021/04/17 05:43:36;;;;;;;1.55;0.60;;;20.00;29.00;;;;;;5095920;28;20464;-67
2021/04/17 05:46:02;;;;;;;1.95;0.70;;;20.00;29.00;;;;;;5096050;28;20107;-67
2021/04/17 05:48:28;;;;;;;1.42;0.68;;;20.00;29.00;;;;;;5095933;28;20150;-67
2021/04/17 05:50:53;;;;;;;2.40;0.77;;;20.00;29.00;;;;;;5095925;28;20027;-67
2021/04/17 05:53:19;;;;;;;1.98;0.70;;;20.00;29.00;;;;;;5095838;28;20040;-67
2021/04/17 05:55:44;;;;;;;1.45;0.63;;;19.90;29.10;;;;;;5095693;28;20028;-67
2021/04/17 05:58:10;;;;;;;2.05;0.82;;;20.00;29.00;;;;;;5095758;28;20372;-67
2021/04/17 06:00:35;;;;;;;1.17;0.70;;;20.00;29.00;;;;;;5098091;28;20115;-67
2021/04/17 06:03:03;;;;;;;1.60;0.77;;;20.00;29.00;;;;;;5097644;28;20089;-67
2021/04/17 06:05:29;;;;;;;1.92;0.80;;;20.00;29.00;;;;;;5097171;28;20033;-67
2021/04/17 06:07:54;;;;;;;2.42;0.90;;;20.00;29.00;;;;;;5097292;28;20046;-67
2021/04/17 06:10:20;;;;;;;4.18;0.90;;;20.00;29.10;;;;;;5096085;28;20032;-67
2021/04/17 06:12:46;;;;;;;3.05;0.98;;;20.00;29.00;;;;;;5095955;28;20021;-67
2021/04/17 06:15:12;;;;;;;1.67;0.63;;;20.00;29.10;;;;;;5095961;28;20112;-67
2021/04/17 06:17:38;;;;;;;2.53;0.80;;;20.00;29.10;;;;;;5095229;28;20016;-67
2021/04/17 06:20:05;;;;;;;0.77;0.50;;;20.00;29.10;;;;;;5095252;28;20039;-67
2021/04/17 06:22:30;;;;;;;3.22;0.90;;;20.00;29.00;;;;;;5095220;28;20039;-68
2021/04/17 06:24:56;;;;;;;2.13;0.80;;;20.00;29.00;;;;;;5095197;28;20045;-67
2021/04/17 06:27:22;;;;;;;2.35;0.70;;;20.00;29.00;;;;;;5095264;28;20036;-67
2021/04/17 06:29:47;;;;;;;3.00;1.00;;;20.00;29.00;;;;;;5095298;28;20024;-67
2021/04/17 06:32:13;;;;;;;3.10;0.80;;;20.00;29.00;;;;;;5094648;28;20537;-67
2021/04/17 06:34:38;;;;;;;2.75;0.93;;;20.00;29.10;;;;;;5095260;28;20111;-67
2021/04/17 06:37:04;;;;;;;1.77;0.60;;;20.10;29.10;;;;;;5094430;28;20024;-67
2021/04/17 06:39:29;;;;;;;3.20;0.75;;;20.00;29.00;;;;;;5094839;28;20028;-67
2021/04/17 06:41:58;;;;;;;1.75;0.90;;;20.10;29.00;;;;;;5095260;28;20035;-67
2021/04/17 06:44:24;;;;;;;1.48;0.60;;;20.10;29.00;;;;;;5095246;28;20375;-67
2021/04/17 06:46:50;;;;;;;2.05;0.70;;;20.10;29.00;;;;;;5094882;28;20026;-65
2021/04/17 06:49:17;;;;;;;1.23;0.63;;;20.10;29.00;;;;;;5094925;28;20375;-67
2021/04/17 06:51:46;;;;;;;3.42;0.80;;;20.10;29.00;;;;;;5094646;28;20031;-66
2021/04/17 06:54:16;;;;;;;3.40;0.73;;;20.20;29.00;;;;;;5093680;28;20487;-67
2021/04/17 06:56:42;;;;;;;3.65;1.05;;;20.20;29.00;;;;;;5094606;28;20024;-67
2021/04/17 06:59:09;;;;;;;1.13;0.70;;;20.20;28.90;;;;;;5094761;28;20073;-67
2021/04/17 07:01:38;;;;;;;0.75;0.50;;;20.20;29.00;;;;;;5094421;28;20502;-67
2021/04/17 07:04:04;;;;;;;3.03;0.75;;;20.20;28.90;;;;;;5094746;28;20024;-67
2021/04/17 07:06:29;;;;;;;2.53;0.70;;;20.20;29.00;;;;;;5094503;28;20469;-67
2021/04/17 07:08:55;;;;;;;1.35;0.63;;;20.20;28.90;;;;;;5094352;28;20024;-67
2021/04/17 07:11:20;;;;;;;1.63;0.77;;;20.20;28.90;;;;;;5094282;28;20145;-67
2021/04/17 07:14:05;;;;;;;2.20;0.80;;;20.20;28.90;;;;;;5094310;28;20472;-67
2021/04/17 07:16:30;;;;;;;1.98;0.77;;;20.30;28.90;;;;;;5094374;28;20031;-67
2021/04/17 07:18:56;;;;;;;1.05;0.57;;;20.30;28.90;;;;;;5094145;28;20027;-67
2021/04/17 07:21:23;;;;;;;3.30;0.90;;;20.30;28.90;;;;;;5094013;28;20052;-67
2021/04/17 07:23:50;;;;;;;1.77;0.70;;;20.30;28.90;;;;;;5094382;28;20026;-67
2021/04/17 07:26:17;;;;;;;1.73;0.60;;;20.30;28.90;;;;;;5094453;28;20552;-67
2021/04/17 07:29:14;;;;;;;1.55;0.80;;;20.30;28.90;;;;;;5094512;28;20028;-67
2021/04/17 07:31:54;;;;;;;2.78;0.68;;;20.30;28.90;;;;;;5094337;28;20125;-67
2021/04/17 07:34:22;;;;;;;2.10;0.60;;;20.30;28.90;;;;;;5093950;28;20093;-67
2021/04/17 07:36:52;;;;;;;0.98;0.50;;;20.30;28.90;;;;;;5093899;28;20024;-67
2021/04/17 07:39:30;;;;;;;4.03;0.73;;;20.30;28.90;;;;;;5094019;28;20150;-67
2021/04/17 07:42:11;;;;;;;2.38;0.70;;;20.40;28.90;;;;;;5093389;28;20414;-68
2021/04/17 07:44:43;;;;;;;3.35;0.93;;;20.40;28.90;;;;;;5093417;28;20086;-67
2021/04/17 07:47:09;;;;;;;1.67;0.50;;;20.40;28.90;;;;;;5093670;28;20031;-67
2021/04/17 07:49:37;;;;;;;2.35;0.50;;;20.40;28.90;;;;;;5093604;28;20490;-67
2021/04/17 07:52:13;;;;;;;2.30;0.65;;;20.40;28.90;;;;;;5093751;28;20061;-67
2021/04/17 07:54:40;;;;;;;3.10;0.57;;;20.40;28.90;;;;;;5093514;28;20434;-68
2021/04/17 07:57:11;;;;;;;2.33;0.60;;;20.40;28.90;;;;;;5093585;28;20388;-67
2021/04/17 07:59:38;;;;;;;2.50;0.70;;;20.40;28.90;;;;;;5093626;28;20470;-67
2021/04/17 08:02:05;;;;;;;2.22;0.80;;;20.40;28.90;;;;;;5093474;28;20035;-67
2021/04/17 08:04:31;;;;;;;2.40;0.75;;;20.40;28.90;;;;;;5093487;28;20028;-67
2021/04/17 08:06:58;;;;;;;3.83;0.82;;;20.40;28.90;;;;;;5093321;28;20484;-67
2021/04/17 08:09:25;;;;;;;3.58;1.00;;;20.40;28.90;;;;;;5093333;28;20472;-67
2021/04/17 08:11:53;;;;;;;2.28;0.90;;;20.40;28.90;;;;;;5093715;28;20028;-67
2021/04/17 08:14:23;;;;;;;1.58;0.65;;;20.40;28.90;;;;;;5093732;28;20031;-67
2021/04/17 08:16:50;;;;;;;2.00;0.50;;;20.40;28.90;;;;;;5092290;28;20024;-67
2021/04/17 08:19:16;;;;;;;1.98;0.60;;;20.40;28.90;;;;;;5093619;28;20016;-66
2021/04/17 08:21:43;;;;;;;3.22;0.80;;;20.40;28.90;;;;;;5093510;28;20060;-67
2021/04/17 08:24:11;;;;;;;2.05;0.70;;;20.40;29.00;;;;;;5097775;28;20016;-67
2021/04/17 08:26:38;;;;;;;1.63;0.80;;;20.40;28.90;;;;;;5095474;28;20056;-67
2021/04/17 08:29:04;;;;;;;1.52;0.50;;;20.40;29.00;;;;;;5092579;28;20024;-66
2021/04/17 08:31:38;;;;;;;2.80;0.85;;;20.40;29.00;;;;;;5093427;28;20077;-67
2021/04/17 08:34:11;;;;;;;1.42;0.63;;;20.40;28.90;;;;;;5093130;28;20024;-67
2021/04/17 08:36:41;;;;;;;2.25;0.73;;;20.50;28.90;;;;;;5093018;28;20103;-67
2021/04/17 08:39:27;;;;;;;2.05;0.82;;;20.40;29.00;;;;;;5093171;28;20028;-67
2021/04/17 08:41:53;;;;;;;2.13;0.80;;;20.40;29.00;;;;;;5093072;28;20077;-67
2021/04/17 08:44:26;;;;;;;2.45;0.75;;;20.40;28.90;;;;;;5093223;28;20020;-66
2021/04/17 08:46:52;;;;;;;2.17;0.82;;;20.40;28.90;;;;;;5093129;28;20487;-66
2021/04/17 08:49:26;;;;;;;4.30;1.10;;;20.50;28.90;;;;;;5093273;28;20031;-66
2021/04/17 08:52:14;;;;;;;3.17;0.70;;;20.40;28.90;;;;;;5093169;28;20078;-66
2021/04/17 08:54:40;;;;;;;2.20;0.70;;;20.40;28.90;;;;;;5093203;28;20028;-66
2021/04/17 08:57:08;;;;;;;2.20;0.63;;;20.40;28.90;;;;;;5093077;28;20017;-67
2021/04/17 08:59:36;;;;;;;2.75;0.88;;;20.40;29.00;;;;;;5093203;28;20028;-66
2021/04/17 09:02:13;;;;;;;1.55;0.70;;;20.50;29.00;;;;;;5093225;28;20081;-66
2021/04/17 09:05:08;;;;;;;1.90;0.60;;;20.50;28.90;;;;;;5093269;28;20476;-66
2021/04/17 09:07:41;;;;;;;1.77;0.70;;;20.50;28.90;;;;;;5098909;28;20039;-66
2021/04/17 09:10:25;;;;;;;1.73;0.65;;;20.50;28.90;;;;;;5093102;28;20537;-66
2021/04/17 09:13:25;;;;;;;3.38;1.00;;;20.40;28.90;;;;;;5093038;28;20020;-66
2021/04/17 09:16:02;;;;;;;1.08;0.57;;;20.50;29.00;;;;;;5093038;28;20020;-66
2021/04/17 09:18:37;;;;;;;1.85;0.70;;;20.40;28.90;;;;;;5096123;28;20028;-67
2021/04/17 09:21:09;;;;;;;2.63;0.70;;;20.50;28.90;;;;;;5096524;28;20055;-66
2021/04/17 09:23:37;;;;;;;1.70;0.60;;;20.50;28.90;;;;;;5096307;28;20483;-67
2021/04/17 09:26:03;;;;;;;3.10;0.70;;;20.50;28.90;;;;;;5096362;28;20024;-68
2021/04/17 09:28:37;;;;;;;4.15;0.80;;;20.50;28.90;;;;;;5096220;28;20113;-67
2021/04/17 09:31:03;;;;;;;2.97;1.15;;;20.50;28.90;;;;;;5094947;28;20338;-67
2021/04/17 09:33:29;;;;;;;1.92;0.60;;;20.50;28.90;;;;;;5096453;28;20035;-65
2021/04/17 09:35:55;;;;;;;4.50;0.95;;;20.40;28.90;;;;;;5094847;28;20487;-67
2021/04/17 09:38:23;;;;;;;2.20;0.88;;;20.50;28.80;;;;;;5095853;28;20032;-67
2021/04/17 09:40:53;;;;;;;2.78;0.80;;;20.50;28.80;;;;;;5095599;28;20043;-67
2021/04/17 09:43:28;;;;;;;3.20;0.80;;;20.50;28.80;;;;;;5095681;28;20033;-67
2021/04/17 09:45:55;;;;;;;2.75;0.60;;;20.50;28.80;;;;;;5095423;28;20035;-67
2021/04/17 09:48:23;;;;;;;3.10;0.80;;;20.50;28.80;;;;;;5095262;28;20418;-67
2021/04/17 09:50:51;;;;;;;2.55;0.60;;;20.50;28.80;;;;;;5095254;28;20107;-67
2021/04/17 09:53:27;;;;;;;2.22;0.57;;;20.50;28.80;;;;;;5095359;28;20032;-67
2021/04/17 09:55:55;;;;;;;2.45;0.70;;;20.50;28.80;;;;;;5095282;28;20503;-66
2021/04/17 09:58:21;;;;;;;2.92;0.80;;;20.50;28.80;;;;;;5095156;28;20028;-67
2021/04/17 10:00:48;;;;;;;1.55;0.77;;;20.50;28.70;;;;;;5094886;28;20067;-67
2021/04/17 10:03:28;;;;;;;1.95;0.80;;;20.50;28.70;;;;;;5094726;28;20414;-66
2021/04/17 10:05:54;;;;;;;3.92;0.70;;;20.50;28.70;;;;;;5093798;28;20375;-67
2021/04/17 10:08:31;;;;;;;2.83;0.75;;;20.50;28.70;;;;;;5095564;28;20047;-66
2021/04/17 10:10:58;;;;;;;2.63;0.60;;;20.50;28.70;;;;;;5095792;28;20039;-66
2021/04/17 10:13:41;;;;;;;1.90;0.60;;;20.50;28.70;;;;;;5095603;28;20425;-68
2021/04/17 10:16:08;;;;;;;2.50;0.70;;;20.50;28.70;;;;;;5095826;28;20024;-67
2021/04/17 10:18:35;;;;;;;2.25;0.90;;;20.50;28.70;;;;;;5095161;28;20468;-68
2021/04/17 10:21:00;;;;;;;1.77;0.50;;;20.50;28.70;;;;;;5095105;28;20471;-68
2021/04/17 10:23:26;;;;;;;2.22;0.65;;;20.50;28.70;;;;;;5095233;28;20061;-68
2021/04/17 10:25:52;;;;;;;2.03;0.80;;;20.50;28.70;;;;;;5095299;28;20404;-68
2021/04/17 10:28:20;;;;;;;2.17;0.80;;;20.50;28.60;;;;;;5094250;28;20483;-67
2021/04/17 10:31:08;;;;;;;1.58;0.70;;;20.50;28.60;;;;;;5094997;28;20020;-66
2021/04/17 10:33:40;;;;;;;2.72;0.70;;;20.50;28.60;;;;;;5085485;28;20373;-67
2021/04/17 10:36:15;;;;;;;2.88;0.70;;;20.50;28.70;;;;;;5096295;28;20065;-66
2021/04/17 10:38:41;;;;;;;1.88;0.52;;;20.50;28.60;;;;;;5099681;28;20020;-66
2021/04/17 10:41:07;;;;;;;3.15;0.80;;;20.50;28.60;;;;;;5099916;28;20035;-66
2021/04/17 10:43:33;;;;;;;2.35;0.93;;;20.50;28.60;;;;;;5095473;28;20020;-67
2021/04/17 10:46:02;;;;;;;3.22;0.63;;;20.50;28.70;;;;;;5095421;28;20024;-66
2021/04/17 10:48:29;;;;;;;2.10;0.70;;;20.50;28.70;;;;;;5098239;28;20047;-67
2021/04/17 10:51:02;;;;;;;1.85;0.60;;;20.50;28.70;;;;;;5099509;28;20081;-67
2021/04/17 10:53:34;;;;;;;2.25;0.75;;;20.50;28.70;;;;;;5096053;28;20091;-67
2021/04/17 10:56:08;;;;;;;3.03;0.73;;;20.50;28.70;;;;;;5095403;28;20031;-67
2021/04/17 10:58:35;;;;;;;2.83;0.85;;;20.40;28.70;;;;;;5095357;28;20063;-66
2021/04/17 11:01:06;;;;;;;2.85;0.88;;;20.50;28.70;;;;;;5094682;28;20076;-66
2021/04/17 11:03:40;;;;;;;2.17;0.65;;;20.50;28.60;;;;;;5094663;28;20016;-67
2021/04/17 11:06:13;;;;;;;1.80;0.60;;;20.50;28.60;;;;;;5094547;28;20540;-66
2021/04/17 11:08:39;;;;;;;2.75;0.70;;;20.50;28.70;;;;;;5094535;28;20344;-66
2021/04/17 11:11:10;;;;;;;2.75;0.70;;;20.50;28.60;;;;;;5094445;28;20456;-66
2021/04/17 11:13:38;;;;;;;2.20;0.75;;;20.40;28.60;;;;;;5094377;28;20095;-66
2021/04/17 11:16:04;;;;;;;2.50;0.80;;;20.40;28.60;;;;;;5094092;28;20032;-66
2021/04/17 11:18:36;;;;;;;2.92;0.77;;;20.40;28.60;;;;;;5094008;28;20404;-67
2021/04/17 11:21:05;;;;;;;4.55;1.25;;;20.40;28.60;;;;;;5094187;28;20058;-67
2021/04/17 11:23:37;;;;;;;2.10;0.95;;;20.40;28.60;;;;;;5094109;28;20044;-66
2021/04/17 11:26:08;;;;;;;3.60;1.00;;;20.40;28.50;;;;;;5093977;28;20494;-67
2021/04/17 11:28:35;;;;;;;1.75;0.70;;;20.40;28.40;;;;;;5094851;28;20460;-66
2021/04/17 11:31:01;;;;;;;3.13;0.70;;;20.50;28.40;;;;;;5094438;28;20061;-66
2021/04/17 11:33:27;;;;;;;2.20;0.60;;;20.50;28.40;;;;;;5093644;28;20082;-67
2021/04/17 11:35:53;;;;;;;1.58;0.50;;;20.40;28.40;;;;;;5096128;28;20032;-67
2021/04/17 11:38:19;;;;;;;2.42;0.50;;;20.50;28.40;;;;;;5098331;28;20460;-67
2021/04/17 11:40:44;;;;;;;2.75;0.75;;;20.40;28.30;;;;;;5095787;28;20016;-67
2021/04/17 11:43:10;;;;;;;2.22;0.70;;;20.40;28.30;;;;;;5095279;28;20051;-66
2021/04/17 11:45:36;;;;;;;2.00;0.65;;;20.40;28.30;;;;;;5095139;28;20519;-66
2021/04/17 11:48:04;;;;;;;2.67;0.82;;;20.50;28.30;;;;;;5094734;28;20380;-66
2021/04/17 11:50:30;;;;;;;1.38;0.50;;;20.50;28.20;;;;;;5094885;28;20026;-67
2021/04/17 11:52:56;;;;;;;2.92;0.70;;;20.50;28.20;;;;;;5093576;28;20099;-66
2021/04/17 11:55:23;;;;;;;2.17;0.60;;;20.50;28.20;;;;;;5093947;28;20040;-66
2021/04/17 11:57:48;;;;;;;3.10;1.00;;;20.50;28.20;;;;;;5093797;28;20023;-66
2021/04/17 12:00:14;;;;;;;2.33;0.70;;;20.50;28.10;;;;;;5093510;28;20384;-66
2021/04/17 12:02:40;;;;;;;2.13;0.80;;;20.50;28.20;;;;;;5093727;28;20383;-66
2021/04/17 12:05:06;;;;;;;2.15;0.77;;;20.50;28.20;;;;;;5093851;28;20024;-67
2021/04/17 12:07:32;;;;;;;2.90;0.77;;;20.50;28.10;;;;;;5093631;28;20028;-66
2021/04/17 12:09:57;;;;;;;1.55;0.57;;;20.50;28.10;;;;;;5093547;28;20031;-66
2021/04/17 12:12:24;;;;;;;1.95;0.60;;;20.50;28.10;;;;;;5093334;28;20476;-66
2021/04/17 12:14:50;;;;;;;0.90;0.47;;;20.50;28.10;;;;;;5092957;28;20032;-67
2021/04/17 12:17:16;;;;;;;2.50;0.77;;;20.50;28.10;;;;;;5093901;28;20020;-66
2021/04/17 12:19:41;;;;;;;1.02;0.50;;;20.50;28.20;;;;;;5094122;28;20032;-66
2021/04/17 12:22:07;;;;;;;3.30;0.82;;;20.40;28.30;;;;;;5093133;28;20142;-66
2021/04/17 12:24:32;;;;;;;2.65;0.60;;;20.50;28.20;;;;;;5094746;28;20068;-66
2021/04/17 12:26:58;;;;;;;2.58;1.15;;;20.50;28.20;;;;;;5094132;28;20483;-66
2021/04/17 12:29:23;;;;;;;3.20;0.88;;;20.50;28.20;;;;;;5095209;28;20491;-67
2021/04/17 12:31:49;;;;;;;3.88;1.00;;;20.50;28.20;;;;;;5094948;28;20162;-67
2021/04/17 12:34:14;;;;;;;2.60;0.90;;;20.50;28.10;;;;;;5093621;28;20146;-66
2021/04/17 12:36:40;;;;;;;2.80;0.82;;;20.50;28.10;;;;;;5093513;28;20024;-66
2021/04/17 12:39:06;;;;;;;4.07;1.08;;;20.60;28.00;;;;;;5093598;28;20450;-66
2021/04/17 12:41:35;;;;;;;2.03;0.80;;;20.60;28.00;;;;;;5093277;28;20028;-66
2021/04/17 12:44:01;;;;;;;2.92;0.73;;;20.50;28.10;;;;;;5093053;28;20028;-66
2021/04/17 12:46:27;;;;;;;3.08;0.98;;;20.50;28.10;;;;;;5092820;28;20031;-66
2021/04/17 12:48:52;;;;;;;3.17;0.98;;;20.50;28.20;;;;;;5093325;28;20376;-67
2021/04/17 12:51:18;;;;;;;1.83;0.70;;;20.40;28.30;;;;;;5092097;28;20031;-66